Flight Track Log - Related Links

Times and Time Zones

All times are in EDT time to prevent confusion due to time zone crossing. See the JBU56 flight status page for this flight to view local times or setup timezone preferences in your user account.

Time Position Orientation Groundspeed Altitude Reporting Facility
EDT Latitude Longitude Course Direction KTS MPH feet Rate Location/Type
Mon 09:22:03 AM 40.6333 -73.7333 14° North 168 193 3,000  Level New York TRACON
Mon 09:22:57 AM 40.6333 -73.6667 90° East 229 264 5,200 3,250 Climbing New York TRACON
Mon 09:23:00 AM 40.8826 -73.6333 North  Level FlightAware Approximate
Mon 09:24:00 AM 40.9719 -73.5891 21° North  Level FlightAware Approximate
Mon 09:24:03 AM 40.7000 -73.6167 30° Northeast 276 318 9,500  Level New York TRACON
Mon 09:25:00 AM 41.0591 -73.5385 27° Northeast  Level FlightAware Approximate
Mon 09:25:39 AM 40.8342 -73.5428 23° Northeast 311 358 13,000  Level Boston Center
Mon 09:26:00 AM 41.1443 -73.4816 27° Northeast  Level FlightAware Approximate
Mon 09:26:39 AM 40.9303 -73.5114 14° North 336 387 15,900  Level Boston Center
Mon 09:27:00 AM 41.2336 -73.4388 14° North  Level FlightAware Approximate
Mon 09:27:39 AM 41.0244 -73.4772 15° North 369 425 18,300  Level Boston Center
Mon 09:28:39 AM 41.1478 -73.4353 14° North 398 458 19,500 1,350 Climbing Boston Center
Mon 09:29:39 AM 41.2628 -73.3928 16° North 415 478 21,000 750 Climbing Boston Center
Mon 09:30:39 AM 41.3814 -73.3833 North 415 478 21,000  Level Boston Center
Mon 09:31:39 AM 41.5003 -73.3742 North 425 489 21,000  Level Boston Center
Mon 09:32:39 AM 41.6172 -73.3675 North 425 489 21,000  Level Boston Center
Mon 09:33:39 AM 41.7358 -73.3636 North 420 483 21,000  Level Boston Center
Mon 09:34:39 AM 41.8547 -73.3542 North 420 483 21,000  Level Boston Center
Mon 09:35:39 AM 41.9736 -73.3478 North 420 483 21,000  Level Boston Center
Mon 09:36:51 AM 42.0925 -73.3408 North 420 483 21,000  Level Boston Center
Mon 09:37:51 AM 42.2344 -73.3289 North 420 483 21,000 -100 Level Boston Center
Mon 09:38:51 AM 42.3281 -73.3275 North 420 483 20,800 -400 Descending Boston Center
Mon 09:39:51 AM 42.4597 -73.3069 North 426 490 20,200 -400 Descending Boston Center
Mon 09:40:51 AM 42.5764 -73.2972 North 426 490 20,000 -100 Descending Boston Center
Mon 09:41:51 AM 42.6847 -73.3017 358° North 421 484 20,000  Level Boston Center
Mon 09:42:51 AM 42.8119 -73.2919 North 416 479 20,000  Level Boston Center
Mon 09:43:51 AM 42.9267 -73.2850 North 416 479 20,000  Level Boston Center
Mon 09:44:51 AM 43.0414 -73.2781 North 416 479 20,000 -100 Level Boston Center
Mon 09:45:51 AM 43.1561 -73.2683 North 416 479 19,800 -682 Descending Boston Center
Mon 09:47:03 AM 43.3000 -73.2589 North 404 465 18,500 -864 Descending Boston Center
Mon 09:48:03 AM 43.4103 -73.2489 North 404 465 17,900 -500 Descending Boston Center
Mon 09:49:03 AM 43.5208 -73.2447 North 399 459 17,500 -1,450 Descending Boston Center
Mon 09:50:03 AM 43.6292 -73.2347 North 399 459 15,000 -2,300 Descending Boston Center
Mon 09:51:03 AM 43.7336 -73.2303 North 385 443 12,900 -1,900 Descending Boston Center
Mon 09:52:03 AM 43.8358 -73.2200 North 375 432 11,200 -1,000 Descending Boston Center
Mon 09:53:03 AM 43.9336 -73.2128 North 362 417 10,900 -500 Descending Boston Center
Mon 09:54:03 AM 44.0192 -73.2108 North 332 382 10,200 -1,045 Descending Boston Center
Mon 09:55:15 AM 44.0961 -73.2408 344° North 297 342 8,600 -1,727 Descending Boston Center
Mon 09:56:15 AM 44.1811 -73.2739 344° North 281 323 6,400 -2,000 Descending Boston Center
Mon 09:57:15 AM 44.2539 -73.3008 345° North 281 323 4,600 -1,545 Descending Boston Center
Mon 09:58:27 AM 44.3289 -73.3253 347° North 281 323 3,000 -909 Descending Boston Center
Mon 09:59:27 AM 44.4225 -73.3236 North 267 307 2,600 -500 Descending Boston Center
Mon 10:00:27 AM 44.4811 -73.2897 22° Northeast 231 266 2,000 -450 Descending Boston Center
Mon 10:01:27 AM 44.5169 -73.2464 41° Northeast 186 214 1,700 -500 Descending Boston Center
Mon 10:02:27 AM 44.5025 -73.2025 115° Southeast 125 144 1,000 -700 Descending Boston Center

Login

Don't have an account? Register now (free) for customized features, flight alerts, and more!